Time;durP1;ratioP1;P1;durP2;ratioP2;P2;SDS_P1;SDS_P2;PMS_P1;PMS_P2;Temp;Humidity;BMP_temperature;BMP_pressure;BME280_temperature;BME280_humidity;BME280_pressure;Samples;Min_cycle;Max_cycle;Signal;HPM_P1;HPM_P2
2023/06/16 00:01:08;;;;;;;8.63;7.20;;;14.40;55.60;;;;;;5017883;28;20427;-57
2023/06/16 00:03:34;;;;;;;14.53;7.20;;;14.40;55.70;;;;;;5020691;28;20450;-56
2023/06/16 00:06:12;;;;;;;8.70;5.90;;;14.30;55.90;;;;;;5020988;28;20529;-58
2023/06/16 00:08:44;;;;;;;6.80;6.10;;;14.20;56.10;;;;;;5016759;28;20444;-59
2023/06/16 00:11:11;;;;;;;8.30;6.53;;;14.20;56.50;;;;;;5023475;28;20477;-57
2023/06/16 00:13:37;;;;;;;9.83;6.10;;;14.10;56.70;;;;;;5019693;28;20509;-57
2023/06/16 00:16:02;;;;;;;7.80;6.67;;;14.00;57.10;;;;;;5019234;28;20502;-58
2023/06/16 00:18:29;;;;;;;11.13;7.10;;;14.00;57.90;;;;;;5016715;28;20176;-57
2023/06/16 00:20:57;;;;;;;9.93;7.37;;;14.00;58.10;;;;;;5017942;28;20169;-59
2023/06/16 00:23:23;;;;;;;12.80;6.80;;;14.00;58.40;;;;;;5018620;28;20426;-57
2023/06/16 00:25:50;;;;;;;7.03;6.33;;;14.00;58.50;;;;;;5023098;28;20871;-58
2023/06/16 00:28:15;;;;;;;9.47;6.87;;;13.90;59.00;;;;;;5015568;28;21211;-55
2023/06/16 00:30:41;;;;;;;9.53;6.87;;;13.90;59.30;;;;;;5015161;28;20431;-57
2023/06/16 00:33:07;;;;;;;7.53;6.70;;;13.90;59.40;;;;;;5020386;28;20180;-57
2023/06/16 00:35:33;;;;;;;10.10;7.20;;;13.90;60.40;;;;;;5020168;28;20222;-57
2023/06/16 00:37:58;;;;;;;8.40;6.97;;;13.90;60.40;;;;;;5021379;28;20188;-58
2023/06/16 00:40:24;;;;;;;11.63;6.40;;;13.90;60.60;;;;;;5019095;28;20180;-60
2023/06/16 00:42:50;;;;;;;12.40;6.87;;;13.80;60.60;;;;;;5011419;28;20187;-58
2023/06/16 00:45:15;;;;;;;9.07;6.93;;;13.80;60.60;;;;;;5021013;28;20195;-57
2023/06/16 00:47:41;;;;;;;8.50;6.87;;;13.70;60.60;;;;;;5020921;28;20184;-59
2023/06/16 00:50:07;;;;;;;8.77;6.90;;;13.70;60.70;;;;;;5024699;28;20183;-58
2023/06/16 00:52:37;;;;;;;8.87;6.90;;;13.60;60.50;;;;;;5025643;28;20462;-57
2023/06/16 00:55:03;;;;;;;7.20;6.50;;;13.50;59.90;;;;;;5021099;28;20509;-56
2023/06/16 00:57:31;;;;;;;10.23;6.70;;;13.50;59.70;;;;;;5020606;28;20430;-58
2023/06/16 00:59:57;;;;;;;8.00;6.40;;;13.50;59.60;;;;;;5022456;28;20221;-58
2023/06/16 01:02:22;;;;;;;8.20;6.90;;;13.40;59.70;;;;;;5022640;28;20947;-58
2023/06/16 01:04:51;;;;;;;7.50;6.63;;;13.40;59.80;;;;;;5018636;28;20823;-58
2023/06/16 01:07:28;;;;;;;7.27;6.57;;;13.30;59.90;;;;;;5024361;28;20233;-57
2023/06/16 01:09:57;;;;;;;7.23;6.30;;;13.30;60.30;;;;;;5015847;28;20969;-57
2023/06/16 01:12:37;;;;;;;10.10;6.70;;;13.20;60.40;;;;;;5015462;28;21113;-57
2023/06/16 01:15:07;;;;;;;7.40;6.70;;;13.20;60.60;;;;;;5019876;28;20526;-56
2023/06/16 01:17:43;;;;;;;8.83;7.07;;;13.20;60.80;;;;;;5019185;28;20423;-57
2023/06/16 01:20:25;;;;;;;8.90;6.67;;;13.20;60.80;;;;;;5021145;28;20802;-58
2023/06/16 01:23:20;;;;;;;11.20;6.63;;;13.20;61.30;;;;;;5021350;28;20434;-56
2023/06/16 01:25:48;;;;;;;9.40;7.00;;;13.10;61.40;;;;;;5026610;28;20496;-57
2023/06/16 01:28:18;;;;;;;8.33;6.73;;;13.10;61.50;;;;;;5020620;28;20515;-58
2023/06/16 01:30:46;;;;;;;7.73;6.93;;;13.00;61.50;;;;;;5018492;28;20961;-57
2023/06/16 01:33:15;;;;;;;7.83;6.83;;;13.00;61.70;;;;;;5019095;28;20479;-57
2023/06/16 01:35:41;;;;;;;7.50;6.80;;;13.00;62.10;;;;;;5022204;28;20456;-56
2023/06/16 01:38:08;;;;;;;9.70;6.27;;;12.90;62.20;;;;;;5018643;28;20554;-58
2023/06/16 01:40:34;;;;;;;7.93;7.13;;;12.90;62.20;;;;;;5014917;28;20422;-58
2023/06/16 01:43:01;;;;;;;7.77;6.67;;;12.90;62.10;;;;;;5020233;28;20442;-58
2023/06/16 01:45:29;;;;;;;7.40;6.60;;;12.90;62.30;;;;;;5016081;28;20470;-59
2023/06/16 01:47:55;;;;;;;7.93;7.10;;;12.90;62.40;;;;;;5024102;28;20515;-57
2023/06/16 01:50:21;;;;;;;12.03;7.50;;;12.80;62.50;;;;;;5022463;28;20926;-56
2023/06/16 01:52:46;;;;;;;7.47;6.70;;;12.80;62.60;;;;;;5025921;28;20548;-55
2023/06/16 01:55:12;;;;;;;11.20;6.90;;;12.70;62.90;;;;;;5023727;28;20532;-58
2023/06/16 01:57:38;;;;;;;8.43;6.93;;;12.70;63.40;;;;;;5027266;28;20179;-58
2023/06/16 02:00:10;;;;;;;8.63;6.90;;;12.70;63.60;;;;;;5020038;28;20180;-58
2023/06/16 02:02:38;;;;;;;8.13;7.07;;;12.70;63.90;;;;;;5019412;28;20946;-58
2023/06/16 02:05:05;;;;;;;7.20;6.27;;;12.60;64.00;;;;;;5022844;28;20815;-59
2023/06/16 02:07:34;;;;;;;8.90;7.17;;;12.60;64.10;;;;;;5020082;28;20427;-57
2023/06/16 02:10:02;;;;;;;8.80;6.60;;;12.60;64.10;;;;;;5024771;28;20488;-57
2023/06/16 02:12:31;;;;;;;11.03;6.60;;;12.60;64.10;;;;;;5025611;28;20468;-57
2023/06/16 02:14:57;;;;;;;8.10;6.87;;;12.50;64.10;;;;;;5017872;28;21056;-60
2023/06/16 02:17:26;;;;;;;8.23;6.33;;;12.50;63.90;;;;;;5018674;28;20460;-57
2023/06/16 02:19:52;;;;;;;8.03;6.77;;;12.50;64.10;;;;;;5025472;28;20183;-59
2023/06/16 02:22:17;;;;;;;9.73;6.73;;;12.50;64.10;;;;;;5029515;28;20772;-58
2023/06/16 02:24:43;;;;;;;10.63;8.43;;;12.50;64.20;;;;;;5027066;28;20196;-57
2023/06/16 02:27:09;;;;;;;11.00;8.00;;;12.40;64.70;;;;;;5019547;28;20195;-57
2023/06/16 02:29:34;;;;;;;11.70;7.50;;;12.40;65.10;;;;;;5021311;28;20179;-58
2023/06/16 02:32:00;;;;;;;15.00;7.50;;;12.40;65.20;;;;;;5022054;28;20207;-56
2023/06/16 02:34:26;;;;;;;7.03;6.33;;;12.30;65.50;;;;;;5026047;28;20787;-59
2023/06/16 02:36:51;;;;;;;9.33;7.20;;;12.30;65.80;;;;;;5027841;28;20221;-54
2023/06/16 02:39:18;;;;;;;12.03;7.60;;;12.20;66.00;;;;;;5019503;28;20271;-56
2023/06/16 02:41:44;;;;;;;8.27;7.23;;;12.20;66.10;;;;;;5027577;28;21029;-58
2023/06/16 02:44:10;;;;;;;10.63;7.07;;;12.10;66.00;;;;;;5027634;28;20544;-59
2023/06/16 02:46:36;;;;;;;9.47;7.17;;;12.10;66.70;;;;;;5018198;28;20180;-58
2023/06/16 02:49:01;;;;;;;8.67;7.43;;;12.10;67.20;;;;;;5020772;28;20488;-57
2023/06/16 02:51:27;;;;;;;9.23;7.40;;;12.10;68.10;;;;;;5025617;28;20327;-56
2023/06/16 02:53:52;;;;;;;8.23;7.10;;;12.00;67.60;;;;;;5018554;28;20180;-57
2023/06/16 02:56:20;;;;;;;12.40;8.17;;;12.00;67.90;;;;;;5025595;28;20178;-56
2023/06/16 02:58:47;;;;;;;10.40;8.13;;;12.00;68.10;;;;;;5017697;28;20191;-56
2023/06/16 03:01:14;;;;;;;9.00;7.47;;;12.00;68.40;;;;;;5018028;28;20736;-57
2023/06/16 03:03:39;;;;;;;12.53;7.80;;;11.90;68.40;;;;;;5020413;28;21037;-57
2023/06/16 03:06:05;;;;;;;12.30;7.90;;;11.90;69.00;;;;;;5016378;28;20470;-58
2023/06/16 03:08:30;;;;;;;8.73;7.20;;;11.90;69.00;;;;;;5016278;28;20228;-58
2023/06/16 03:10:56;;;;;;;8.93;7.00;;;11.90;69.10;;;;;;5022549;28;20223;-57
2023/06/16 03:13:22;;;;;;;8.73;7.50;;;11.90;69.50;;;;;;5019829;28;20188;-57
2023/06/16 03:15:48;;;;;;;10.10;7.50;;;11.90;69.80;;;;;;5024044;28;20690;-58
2023/06/16 03:18:13;;;;;;;12.27;7.67;;;11.80;70.20;;;;;;5024524;28;20234;-58
2023/06/16 03:20:40;;;;;;;9.07;8.10;;;11.90;70.40;;;;;;5015372;28;20462;-57
2023/06/16 03:23:05;;;;;;;13.00;8.00;;;11.80;70.60;;;;;;5024984;28;20541;-57
2023/06/16 03:25:32;;;;;;;11.50;8.23;;;11.80;70.40;;;;;;5026733;28;20500;-56
2023/06/16 03:27:58;;;;;;;8.57;7.60;;;11.90;71.30;;;;;;5025699;28;20620;-59
2023/06/16 03:30:24;;;;;;;10.57;8.17;;;11.90;71.70;;;;;;5021095;28;20470;-57
2023/06/16 03:32:50;;;;;;;10.03;7.97;;;11.90;71.60;;;;;;5024934;28;20502;-57
2023/06/16 03:35:17;;;;;;;10.63;8.10;;;11.90;72.10;;;;;;5019419;28;20283;-57
2023/06/16 03:37:43;;;;;;;14.23;8.27;;;11.90;72.00;;;;;;5022477;28;20187;-57
2023/06/16 03:40:09;;;;;;;10.23;7.40;;;11.90;72.10;;;;;;5021310;28;20777;-57
2023/06/16 03:42:35;;;;;;;8.97;7.87;;;11.90;71.80;;;;;;5024853;28;20198;-58
2023/06/16 03:45:01;;;;;;;8.30;7.23;;;11.90;71.90;;;;;;5024978;28;20951;-56
2023/06/16 03:47:27;;;;;;;7.77;6.47;;;11.80;73.00;;;;;;5021969;28;20959;-59
2023/06/16 03:49:54;;;;;;;8.57;7.50;;;11.80;74.20;;;;;;5014654;28;20442;-57
2023/06/16 03:52:20;;;;;;;7.97;7.00;;;11.80;74.40;;;;;;5023485;28;20210;-57
2023/06/16 03:54:46;;;;;;;8.50;7.20;;;11.90;74.90;;;;;;5023550;28;20493;-58
2023/06/16 03:57:12;;;;;;;10.50;8.33;;;11.90;74.80;;;;;;5021285;28;20435;-57
2023/06/16 03:59:38;;;;;;;9.83;8.17;;;11.90;73.70;;;;;;5013553;28;20810;-57
2023/06/16 04:02:07;;;;;;;9.57;8.17;;;11.90;73.30;;;;;;5016437;28;20439;-56
2023/06/16 04:04:34;;;;;;;9.20;7.90;;;11.90;72.40;;;;;;5019436;28;20704;-57
2023/06/16 04:07:00;;;;;;;9.30;7.87;;;11.90;72.30;;;;;;5020540;28;20465;-55
2023/06/16 04:09:26;;;;;;;10.77;8.07;;;11.90;72.30;;;;;;5015398;28;20438;-59
2023/06/16 04:11:52;;;;;;;10.60;8.13;;;11.90;72.20;;;;;;5018299;28;21105;-56
2023/06/16 04:14:18;;;;;;;10.13;7.87;;;11.90;73.20;;;;;;5016504;28;20701;-56
2023/06/16 04:16:44;;;;;;;9.53;8.10;;;11.90;74.00;;;;;;5016612;28;20925;-55
2023/06/16 04:19:13;;;;;;;11.30;8.83;;;11.90;73.50;;;;;;5021006;28;20188;-58
2023/06/16 04:21:41;;;;;;;9.10;7.87;;;11.90;74.20;;;;;;5018612;28;20195;-58
2023/06/16 04:24:10;;;;;;;10.13;8.13;;;11.90;73.70;;;;;;5011381;28;20434;-58
2023/06/16 04:26:37;;;;;;;9.87;8.00;;;11.90;73.30;;;;;;5015484;28;20517;-58
2023/06/16 04:29:05;;;;;;;9.50;8.17;;;11.90;73.30;;;;;;5015889;28;20435;-59
2023/06/16 04:31:35;;;;;;;10.63;7.43;;;11.90;74.20;;;;;;5003045;28;20462;-56
2023/06/16 04:34:03;;;;;;;11.20;8.00;;;11.90;74.70;;;;;;5019043;28;20441;-58
2023/06/16 04:36:31;;;;;;;8.90;7.77;;;11.80;76.20;;;;;;5021681;28;20434;-56
2023/06/16 04:38:58;;;;;;;9.20;8.30;;;11.90;76.30;;;;;;5015388;28;20451;-56
2023/06/16 04:41:24;;;;;;;12.33;8.50;;;11.90;75.80;;;;;;5014270;28;20435;-55
2023/06/16 04:43:49;;;;;;;10.83;8.93;;;11.90;76.60;;;;;;5021994;28;20445;-60
2023/06/16 04:46:15;;;;;;;10.73;7.67;;;12.00;76.60;;;;;;5013421;28;20207;-59
2023/06/16 04:48:41;;;;;;;10.10;7.97;;;12.00;76.10;;;;;;5019854;28;20290;-58
2023/06/16 04:51:07;;;;;;;17.43;7.87;;;12.10;75.20;;;;;;5018790;28;20245;-59
2023/06/16 04:53:33;;;;;;;9.93;8.50;;;12.10;75.20;;;;;;5019312;28;20426;-57
2023/06/16 04:55:58;;;;;;;12.83;8.10;;;12.10;74.20;;;;;;5018519;28;20232;-57
2023/06/16 04:58:24;;;;;;;10.50;8.60;;;12.20;74.00;;;;;;5014263;28;20160;-58
2023/06/16 05:00:50;;;;;;;11.43;8.60;;;12.20;75.10;;;;;;5018544;28;20175;-58
2023/06/16 05:03:16;;;;;;;9.63;7.80;;;12.30;74.70;;;;;;5014850;28;20214;-58
2023/06/16 05:05:42;;;;;;;11.83;8.77;;;12.30;75.30;;;;;;5016580;28;20334;-58
2023/06/16 05:08:08;;;;;;;8.13;7.33;;;12.40;76.10;;;;;;5017356;28;21075;-56
2023/06/16 05:10:33;;;;;;;11.93;8.37;;;12.50;75.30;;;;;;5004438;28;20375;-58
2023/06/16 05:12:59;;;;;;;9.80;7.83;;;12.60;74.40;;;;;;5012162;28;20638;-57
2023/06/16 05:15:25;;;;;;;15.50;7.87;;;12.60;73.50;;;;;;5017201;28;20691;-58
2023/06/16 05:17:50;;;;;;;12.03;8.60;;;12.70;72.30;;;;;;5001437;28;21133;-58
2023/06/16 05:20:16;;;;;;;10.40;8.50;;;12.70;71.00;;;;;;5014242;28;20172;-57
2023/06/16 05:22:42;;;;;;;10.67;8.77;;;12.80;70.20;;;;;;5018324;28;20183;-57
2023/06/16 05:25:08;;;;;;;15.37;8.67;;;12.80;70.00;;;;;;5021608;28;20192;-59
2023/06/16 05:27:33;;;;;;;12.70;9.70;;;12.90;70.00;;;;;;5025930;28;20180;-58
2023/06/16 05:30:00;;;;;;;12.17;8.77;;;12.90;70.70;;;;;;5019854;28;20799;-59
2023/06/16 05:32:25;;;;;;;14.10;10.33;;;13.00;71.10;;;;;;5026303;28;20214;-58
2023/06/16 05:34:52;;;;;;;15.47;10.90;;;13.10;70.60;;;;;;5012397;28;20458;-56
2023/06/16 05:37:19;;;;;;;18.00;11.43;;;13.20;69.60;;;;;;5023661;28;20326;-58
2023/06/16 05:39:46;;;;;;;15.60;11.07;;;13.30;68.80;;;;;;5016196;28;21184;-57
2023/06/16 05:42:14;;;;;;;19.73;10.67;;;13.30;67.30;;;;;;5017652;28;20442;-59
2023/06/16 05:44:41;;;;;;;17.17;10.63;;;13.40;66.50;;;;;;5021736;28;21018;-59
2023/06/16 05:47:07;;;;;;;17.10;11.17;;;13.50;66.50;;;;;;5024678;28;20441;-57
2023/06/16 05:49:33;;;;;;;16.30;11.00;;;13.50;66.70;;;;;;5019934;28;20461;-57
2023/06/16 05:51:59;;;;;;;19.07;11.43;;;13.60;66.40;;;;;;5017199;28;20462;-59
2023/06/16 05:54:25;;;;;;;17.27;10.60;;;13.70;66.40;;;;;;5022421;28;20200;-57
2023/06/16 05:56:50;;;;;;;15.17;11.30;;;13.80;66.90;;;;;;5017292;28;20418;-59
2023/06/16 05:59:17;;;;;;;15.37;10.60;;;13.90;66.20;;;;;;5013540;28;20311;-58
2023/06/16 06:01:42;;;;;;;18.73;10.93;;;14.10;65.70;;;;;;5016020;28;20176;-58
2023/06/16 06:04:11;;;;;;;18.70;11.60;;;14.30;65.40;;;;;;5015531;28;21854;-58
2023/06/16 06:06:38;;;;;;;13.33;11.30;;;14.40;64.60;;;;;;5020475;28;20180;-58
2023/06/16 06:09:04;;;;;;;13.60;10.20;;;14.50;64.40;;;;;;5022634;28;20438;-56
2023/06/16 06:11:30;;;;;;;15.27;10.93;;;14.60;63.60;;;;;;5014645;28;20454;-58
2023/06/16 06:13:56;;;;;;;14.97;10.63;;;14.70;62.00;;;;;;5016810;28;20794;-58
2023/06/16 06:16:22;;;;;;;14.63;10.30;;;14.70;61.60;;;;;;5016434;28;20188;-56
2023/06/16 06:18:48;;;;;;;18.93;10.77;;;14.80;61.50;;;;;;5024963;28;20180;-60
2023/06/16 06:21:14;;;;;;;18.80;11.33;;;14.90;62.30;;;;;;5025016;28;20229;-59
2023/06/16 06:23:40;;;;;;;15.43;10.53;;;15.00;62.50;;;;;;5019026;28;20442;-61
2023/06/16 06:26:06;;;;;;;15.03;9.70;;;15.10;62.70;;;;;;5021696;28;22176;-57
2023/06/16 06:28:31;;;;;;;20.93;10.70;;;15.30;63.30;;;;;;5022678;28;20188;-58
2023/06/16 06:30:57;;;;;;;16.73;11.13;;;15.40;62.30;;;;;;5022077;28;20653;-59
2023/06/16 06:33:22;;;;;;;16.87;10.97;;;15.50;61.70;;;;;;5022834;28;20190;-59
2023/06/16 06:35:48;;;;;;;15.90;10.10;;;15.60;61.60;;;;;;5021174;28;20193;-59
2023/06/16 06:38:14;;;;;;;18.33;10.10;;;15.70;60.50;;;;;;5022932;28;20184;-59
2023/06/16 06:40:40;;;;;;;19.07;10.80;;;15.80;59.90;;;;;;5021534;28;20178;-58
2023/06/16 06:43:06;;;;;;;15.60;9.57;;;15.90;60.00;;;;;;5022163;28;20497;-58
2023/06/16 06:45:32;;;;;;;21.00;10.13;;;16.10;59.80;;;;;;5027393;28;20486;-56
2023/06/16 06:47:57;;;;;;;14.27;10.20;;;16.20;59.10;;;;;;5022834;28;20185;-58
2023/06/16 06:50:23;;;;;;;15.70;9.70;;;16.30;58.80;;;;;;5022991;28;20249;-58
2023/06/16 06:52:49;;;;;;;15.10;9.77;;;16.40;58.60;;;;;;5015963;28;20208;-58
2023/06/16 06:55:15;;;;;;;13.50;9.40;;;16.60;58.40;;;;;;5022432;28;20227;-59
2023/06/16 06:57:42;;;;;;;12.80;8.97;;;16.70;58.20;;;;;;5020623;28;20191;-58
2023/06/16 07:00:08;;;;;;;18.33;8.70;;;16.90;57.80;;;;;;5024520;28;20184;-58
2023/06/16 07:02:35;;;;;;;15.20;8.33;;;17.00;57.50;;;;;;5020367;28;21192;-57
2023/06/16 07:05:02;;;;;;;13.47;8.80;;;17.20;57.30;;;;;;5016373;28;20454;-58
2023/06/16 07:07:27;;;;;;;15.80;8.43;;;17.30;56.90;;;;;;5019226;28;20431;-58
2023/06/16 07:09:53;;;;;;;11.73;8.47;;;17.40;56.50;;;;;;5020314;28;20441;-59
2023/06/16 07:12:19;;;;;;;15.17;8.80;;;17.60;56.30;;;;;;5023624;28;20207;-60
2023/06/16 07:14:48;;;;;;;14.37;7.67;;;17.70;56.00;;;;;;5020832;28;20208;-59
2023/06/16 07:17:13;;;;;;;11.57;7.30;;;17.80;55.80;;;;;;5015243;28;20180;-58
2023/06/16 07:19:39;;;;;;;12.70;7.50;;;17.90;54.10;;;;;;5016434;28;20811;-58
2023/06/16 07:22:07;;;;;;;11.60;6.57;;;18.10;54.60;;;;;;5018780;28;20680;-56
2023/06/16 07:24:33;;;;;;;6.97;6.27;;;18.30;54.80;;;;;;5025898;28;20204;-57
2023/06/16 07:27:02;;;;;;;8.03;6.77;;;18.50;54.10;;;;;;5013350;28;20445;-58
2023/06/16 07:29:28;;;;;;;7.90;6.67;;;18.80;53.20;;;;;;5020299;28;20186;-58
2023/06/16 07:31:54;;;;;;;9.63;6.90;;;19.00;52.40;;;;;;5025704;28;20473;-58
2023/06/16 07:34:20;;;;;;;11.37;6.83;;;19.20;52.30;;;;;;5015133;28;20446;-57
2023/06/16 07:36:46;;;;;;;8.63;6.03;;;19.40;51.70;;;;;;5023122;28;20233;-58
2023/06/16 07:39:11;;;;;;;9.70;5.93;;;19.60;51.30;;;;;;5022867;28;20684;-57
2023/06/16 07:41:37;;;;;;;8.33;5.97;;;19.80;50.00;;;;;;5023586;28;20182;-57
2023/06/16 07:44:05;;;;;;;12.20;7.27;;;19.80;49.00;;;;;;5021129;28;20179;-57
2023/06/16 07:46:32;;;;;;;9.23;6.63;;;20.00;49.70;;;;;;5024785;28;20441;-56
2023/06/16 07:48:57;;;;;;;7.60;5.80;;;20.10;50.40;;;;;;5022596;28;20441;-58
2023/06/16 07:51:23;;;;;;;12.33;6.70;;;20.20;49.60;;;;;;5024035;28;20564;-56
2023/06/16 07:53:49;;;;;;;8.27;6.07;;;20.30;48.10;;;;;;5023427;28;20180;-56
2023/06/16 07:56:15;;;;;;;9.57;5.30;;;20.40;47.40;;;;;;5021083;28;20207;-58
2023/06/16 07:58:41;;;;;;;8.93;5.40;;;20.50;47.50;;;;;;5017249;28;20226;-58
2023/06/16 08:01:07;;;;;;;7.20;5.00;;;20.60;47.50;;;;;;5025407;28;20856;-58
2023/06/16 08:03:33;;;;;;;7.80;5.00;;;20.70;45.40;;;;;;5023889;28;20183;-56
2023/06/16 08:05:59;;;;;;;6.97;5.30;;;20.80;45.00;;;;;;5021953;28;20462;-57
2023/06/16 08:08:28;;;;;;;12.40;5.60;;;21.00;44.30;;;;;;5015928;28;20600;-56
2023/06/16 08:10:57;;;;;;;5.93;4.80;;;21.10;43.60;;;;;;5019257;28;20184;-57
2023/06/16 08:13:23;;;;;;;7.80;5.30;;;21.30;40.80;;;;;;5014375;28;20899;-56
2023/06/16 08:15:49;;;;;;;5.13;4.63;;;21.30;40.00;;;;;;5012935;28;20469;-56
2023/06/16 08:18:17;;;;;;;7.07;4.70;;;21.50;39.40;;;;;;5022952;28;20426;-56
2023/06/16 08:20:44;;;;;;;12.73;5.50;;;21.60;38.60;;;;;;5015179;28;20426;-57
2023/06/16 08:23:10;;;;;;;7.07;5.43;;;21.60;38.00;;;;;;5005944;28;20453;-57
2023/06/16 08:25:35;;;;;;;8.03;5.37;;;21.80;37.80;;;;;;5012608;28;22122;-58
2023/06/16 08:28:03;;;;;;;9.30;5.10;;;21.90;38.20;;;;;;5020713;28;20199;-58
2023/06/16 08:30:28;;;;;;;19.53;5.30;;;22.00;38.50;;;;;;5017545;28;20191;-56
2023/06/16 08:32:54;;;;;;;9.40;4.97;;;22.00;38.20;;;;;;5012396;28;20475;-57
2023/06/16 08:35:20;;;;;;;8.17;5.03;;;22.10;37.00;;;;;;5015931;28;20235;-59
2023/06/16 08:37:46;;;;;;;9.30;5.23;;;22.10;36.00;;;;;;5015860;28;20195;-57
2023/06/16 08:40:12;;;;;;;9.80;5.33;;;22.20;34.90;;;;;;5020902;28;20176;-57
2023/06/16 08:42:38;;;;;;;6.63;5.27;;;22.20;35.90;;;;;;5010136;28;20184;-57
2023/06/16 08:45:05;;;;;;;10.20;5.27;;;22.20;36.10;;;;;;5014937;28;20461;-59
2023/06/16 08:47:31;;;;;;;9.23;5.20;;;22.20;35.20;;;;;;5012633;28;20967;-57
2023/06/16 08:49:57;;;;;;;6.33;5.30;;;22.10;34.30;;;;;;5015667;28;20441;-59
2023/06/16 08:52:23;;;;;;;6.23;4.73;;;22.10;34.90;;;;;;5013850;28;20996;-59
2023/06/16 08:54:57;;;;;;;6.30;5.03;;;22.20;35.00;;;;;;5017741;28;21451;-59
2023/06/16 08:57:24;;;;;;;9.20;5.03;;;22.20;35.70;;;;;;5012246;28;20449;-58
2023/06/16 08:59:54;;;;;;;8.93;5.00;;;22.20;34.80;;;;;;5010010;28;21066;-57
2023/06/16 09:02:21;;;;;;;9.80;5.80;;;22.30;35.30;;;;;;5014686;28;20436;-57
2023/06/16 09:04:47;;;;;;;7.43;5.10;;;22.30;35.30;;;;;;5008623;28;20557;-57
2023/06/16 09:07:19;;;;;;;10.47;5.60;;;22.40;36.00;;;;;;5013108;28;20465;-58
2023/06/16 09:09:45;;;;;;;10.00;5.93;;;22.60;35.90;;;;;;5017556;28;20438;-57
2023/06/16 09:12:11;;;;;;;10.23;5.60;;;22.80;35.20;;;;;;5012607;28;20914;-57
2023/06/16 09:14:38;;;;;;;7.70;4.97;;;22.90;33.70;;;;;;5015210;28;20467;-58
2023/06/16 09:17:05;;;;;;;5.50;4.87;;;23.10;33.90;;;;;;5017949;28;20438;-57
2023/06/16 09:19:35;;;;;;;12.53;6.10;;;23.20;32.40;;;;;;5010223;28;21034;-56
2023/06/16 09:22:02;;;;;;;9.83;5.90;;;23.30;30.70;;;;;;5017919;28;20446;-56
2023/06/16 09:24:28;;;;;;;12.50;5.70;;;23.50;30.10;;;;;;5017819;28;20458;-56
2023/06/16 09:26:59;;;;;;;7.73;5.93;;;23.60;29.50;;;;;;5015063;28;20458;-57
2023/06/16 09:29:26;;;;;;;15.33;6.30;;;23.60;29.30;;;;;;5010258;28;20431;-58
2023/06/16 09:31:52;;;;;;;12.00;5.60;;;23.60;29.30;;;;;;5019647;28;20994;-59
2023/06/16 09:34:18;;;;;;;8.83;5.97;;;23.50;30.30;;;;;;5018234;28;20458;-59
2023/06/16 09:36:44;;;;;;;8.40;6.37;;;23.50;32.30;;;;;;5018640;28;20180;-57
2023/06/16 09:39:26;;;;;;;8.70;5.70;;;23.40;33.10;;;;;;5014459;28;20527;-58
2023/06/16 09:41:52;;;;;;;8.47;5.17;;;23.20;32.70;;;;;;5011695;28;20437;-56
2023/06/16 09:44:23;;;;;;;6.03;5.03;;;23.20;33.30;;;;;;5012094;28;20488;-58
2023/06/16 09:46:49;;;;;;;13.43;5.80;;;23.20;31.40;;;;;;5014962;28;20838;-57
2023/06/16 09:49:24;;;;;;;6.97;4.90;;;23.20;31.20;;;;;;5017563;28;20449;-59
2023/06/16 09:51:54;;;;;;;6.43;5.13;;;23.10;31.70;;;;;;5009907;28;20457;-59
2023/06/16 09:54:24;;;;;;;8.03;5.00;;;22.90;32.00;;;;;;5010632;28;20458;-55
2023/06/16 09:56:50;;;;;;;10.80;5.40;;;22.80;32.50;;;;;;5007082;28;20430;-59
2023/06/16 09:59:17;;;;;;;7.77;5.73;;;22.60;33.50;;;;;;5014929;28;21081;-58
2023/06/16 10:01:46;;;;;;;9.30;5.63;;;22.50;33.90;;;;;;5012319;28;20559;-58
2023/06/16 10:04:14;;;;;;;7.07;5.23;;;22.30;34.40;;;;;;5009546;28;20450;-59
2023/06/16 10:07:07;;;;;;;8.17;4.93;;;22.10;34.50;;;;;;5014580;28;21404;-59
2023/06/16 10:09:44;;;;;;;9.43;5.03;;;21.90;35.20;;;;;;5020816;28;20450;-59
2023/06/16 10:12:14;;;;;;;8.57;4.80;;;21.70;35.60;;;;;;5018146;28;20474;-57
2023/06/16 10:14:41;;;;;;;10.40;5.60;;;21.60;36.10;;;;;;5016166;28;20983;-60
2023/06/16 10:17:10;;;;;;;8.83;5.40;;;21.60;36.00;;;;;;5020298;28;20845;-58
2023/06/16 10:19:38;;;;;;;8.73;5.67;;;21.50;36.20;;;;;;5022371;28;20435;-58
2023/06/16 10:22:04;;;;;;;8.50;4.97;;;21.50;37.10;;;;;;5013512;28;20437;-58
2023/06/16 10:24:30;;;;;;;6.47;4.77;;;21.50;37.40;;;;;;5012902;28;20488;-57
2023/06/16 10:26:57;;;;;;;10.57;6.60;;;21.60;38.10;;;;;;5021378;28;20437;-58
2023/06/16 10:29:25;;;;;;;7.70;5.17;;;21.60;38.00;;;;;;5017046;28;20434;-60
2023/06/16 10:32:08;;;;;;;10.43;5.47;;;21.70;38.00;;;;;;5012500;28;20474;-57
2023/06/16 10:34:34;;;;;;;8.40;5.30;;;21.80;38.10;;;;;;5018020;28;20446;-56
2023/06/16 10:37:01;;;;;;;9.53;5.40;;;21.90;38.70;;;;;;5010400;28;21015;-57
2023/06/16 10:39:27;;;;;;;7.23;5.07;;;22.00;39.20;;;;;;5015382;28;20517;-58
2023/06/16 10:42:00;;;;;;;7.87;5.27;;;22.10;39.00;;;;;;5015673;28;21025;-58
2023/06/16 10:44:30;;;;;;;8.70;5.00;;;22.30;37.80;;;;;;5020916;28;20536;-58
2023/06/16 10:47:07;;;;;;;6.73;4.53;;;22.40;37.80;;;;;;5005579;28;20434;-57
2023/06/16 10:49:43;;;;;;;5.20;4.70;;;22.60;38.20;;;;;;5016174;28;21245;-56
2023/06/16 10:52:08;;;;;;;6.73;4.80;;;22.90;38.20;;;;;;5013525;28;21046;-57
2023/06/16 10:54:37;;;;;;;8.17;5.47;;;23.20;37.50;;;;;;5008473;28;20454;-58
2023/06/16 10:57:06;;;;;;;7.37;5.07;;;23.30;37.00;;;;;;5013323;28;20168;-56
2023/06/16 10:59:53;;;;;;;5.20;4.50;;;23.30;35.50;;;;;;5010358;28;20416;-56
2023/06/16 11:02:47;;;;;;;11.30;4.83;;;23.30;34.10;;;;;;5014334;28;20457;-55
2023/06/16 11:05:14;;;;;;;9.83;5.20;;;23.20;33.60;;;;;;5012972;28;20990;-57
2023/06/16 11:07:44;;;;;;;9.50;5.20;;;23.10;33.20;;;;;;5007451;28;20442;-55
2023/06/16 11:10:11;;;;;;;6.27;4.63;;;23.00;33.50;;;;;;5001821;28;20523;-56
2023/06/16 11:12:37;;;;;;;7.33;5.00;;;23.00;33.80;;;;;;5007764;28;20459;-58
2023/06/16 11:15:04;;;;;;;6.17;5.23;;;23.00;34.00;;;;;;5025298;28;20434;-56
2023/06/16 11:17:31;;;;;;;6.40;4.47;;;23.10;34.70;;;;;;5022840;28;20442;-58
2023/06/16 11:19:58;;;;;;;14.23;5.53;;;23.30;34.80;;;;;;5020126;28;20450;-59
2023/06/16 11:22:31;;;;;;;7.07;4.77;;;23.60;34.30;;;;;;5019623;28;20431;-57
2023/06/16 11:24:57;;;;;;;9.30;4.87;;;24.00;34.70;;;;;;5020560;28;20549;-57
2023/06/16 11:27:25;;;;;;;5.90;4.90;;;24.50;33.60;;;;;;5017946;28;20557;-59
2023/06/16 11:29:53;;;;;;;6.73;5.23;;;24.80;33.80;;;;;;5019904;28;20441;-58
2023/06/16 11:32:23;;;;;;;6.87;5.20;;;25.10;33.60;;;;;;5022990;28;21022;-58
2023/06/16 11:34:50;;;;;;;9.70;5.37;;;25.30;33.30;;;;;;5022809;28;20484;-56
2023/06/16 11:37:15;;;;;;;8.83;5.90;;;25.30;33.10;;;;;;5022396;28;20449;-57
2023/06/16 11:39:44;;;;;;;7.40;5.07;;;25.10;32.90;;;;;;5017978;28;20438;-57
2023/06/16 11:42:14;;;;;;;10.33;4.87;;;24.90;33.00;;;;;;5019420;28;20272;-57
2023/06/16 11:44:40;;;;;;;9.73;5.20;;;24.90;32.70;;;;;;5024704;28;20537;-58
2023/06/16 11:47:05;;;;;;;7.87;5.33;;;24.80;32.30;;;;;;5021379;28;20575;-56
2023/06/16 11:49:36;;;;;;;9.43;5.10;;;24.70;32.90;;;;;;5019382;28;20825;-56
2023/06/16 11:52:06;;;;;;;7.70;6.03;;;24.90;33.80;;;;;;5018252;28;20207;-55
2023/06/16 11:54:33;;;;;;;10.43;5.20;;;25.10;33.50;;;;;;5021742;28;20454;-56
2023/06/16 11:56:59;;;;;;;8.00;4.87;;;25.20;33.60;;;;;;5021717;28;20436;-56
2023/06/16 11:59:30;;;;;;;8.83;5.90;;;25.30;33.50;;;;;;5021259;28;20429;-59
2023/06/16 12:02:01;;;;;;;7.57;5.40;;;25.40;32.60;;;;;;5018692;28;20446;-59
2023/06/16 12:04:28;;;;;;;8.87;4.77;;;25.60;33.10;;;;;;5019335;28;21145;-58
2023/06/16 12:06:56;;;;;;;7.30;4.90;;;26.00;33.40;;;;;;5020631;28;20724;-57
2023/06/16 12:09:22;;;;;;;5.37;4.57;;;26.20;32.30;;;;;;5016105;28;20445;-57
2023/06/16 12:11:48;;;;;;;8.10;5.30;;;26.20;32.30;;;;;;5022209;28;20460;-56
2023/06/16 12:14:21;;;;;;;10.43;4.80;;;26.20;32.40;;;;;;5021070;28;20464;-56
2023/06/16 12:16:53;;;;;;;6.73;5.23;;;26.10;32.10;;;;;;5015617;28;21000;-59
2023/06/16 12:19:20;;;;;;;6.60;5.17;;;26.10;32.20;;;;;;5023685;28;20422;-60
2023/06/16 12:21:58;;;;;;;6.30;4.97;;;26.10;32.40;;;;;;5023615;28;20437;-58
2023/06/16 12:24:23;;;;;;;6.30;5.30;;;26.20;32.10;;;;;;5014418;28;20549;-58
2023/06/16 12:26:52;;;;;;;6.40;4.50;;;26.20;32.10;;;;;;5018239;28;20509;-58
2023/06/16 12:29:18;;;;;;;9.40;5.50;;;26.40;32.40;;;;;;5023997;28;20199;-58
2023/06/16 12:32:02;;;;;;;5.50;4.93;;;26.90;32.40;;;;;;5018642;28;20830;-58
2023/06/16 12:34:30;;;;;;;10.23;5.40;;;27.30;32.10;;;;;;5024731;28;20668;-58
2023/06/16 12:37:07;;;;;;;10.80;4.77;;;27.70;31.20;;;;;;5015431;28;20453;-58
2023/06/16 12:39:33;;;;;;;7.80;5.57;;;28.00;30.70;;;;;;5017853;28;20244;-56
2023/06/16 12:42:07;;;;;;;17.60;6.43;;;28.20;30.00;;;;;;5018578;28;20184;-60